createdAt,value
2022-08-26T00:00:14.471Z,0.00
2022-08-26T00:00:44.455Z,0.00
2022-08-26T00:01:15.442Z,0.00
2022-08-26T00:01:45.436Z,0.00
2022-08-26T00:02:15.707Z,0.00
2022-08-26T00:02:49.330Z,0.00
2022-08-26T00:03:19.330Z,0.00
2022-08-26T00:03:49.332Z,0.00
2022-08-26T00:04:19.512Z,0.00
2022-08-26T00:04:49.516Z,0.00
2022-08-26T00:05:19.712Z,0.00
2022-08-26T00:05:49.706Z,0.00
2022-08-26T00:06:20.889Z,0.00
2022-08-26T00:06:50.980Z,0.00
2022-08-26T00:07:20.982Z,0.00
2022-08-26T00:07:50.973Z,0.00
2022-08-26T00:08:21.359Z,0.00
2022-08-26T00:08:51.343Z,0.00
2022-08-26T00:09:21.514Z,0.00
2022-08-26T00:09:54.516Z,0.00
2022-08-26T00:10:25.877Z,0.00
2022-08-26T00:10:55.931Z,0.00
2022-08-26T00:11:29.885Z,0.00
2022-08-26T00:11:59.928Z,0.00
2022-08-26T00:12:36.005Z,0.00
2022-08-26T00:13:05.662Z,0.00
2022-08-26T00:13:36.281Z,0.00
2022-08-26T00:14:06.274Z,0.00
2022-08-26T00:14:36.282Z,0.00
2022-08-26T00:15:06.262Z,0.00
2022-08-26T00:16:14.271Z,0.00
2022-08-26T00:16:47.283Z,0.00
2022-08-26T00:17:18.255Z,0.00
2022-08-26T00:17:49.502Z,0.00
2022-08-26T00:18:22.615Z,0.00
2022-08-26T00:18:52.769Z,0.00
2022-08-26T00:19:22.774Z,0.00
2022-08-26T00:19:53.193Z,0.00
2022-08-26T00:20:23.351Z,0.00
2022-08-26T00:20:53.628Z,0.00
2022-08-26T00:21:23.626Z,0.00
2022-08-26T00:21:53.612Z,0.00
2022-08-26T00:22:23.624Z,0.00
2022-08-26T00:22:54.501Z,0.00
2022-08-26T00:23:24.492Z,0.00
2022-08-26T00:23:54.511Z,0.00
2022-08-26T00:24:24.507Z,0.00
2022-08-26T00:24:55.376Z,0.00
2022-08-26T00:25:25.358Z,0.00
2022-08-26T00:25:55.341Z,0.00
2022-08-26T00:26:28.367Z,0.00
2022-08-26T00:26:58.567Z,0.00
2022-08-26T00:27:28.577Z,0.00
2022-08-26T00:27:58.585Z,0.00
2022-08-26T00:28:28.566Z,0.00
2022-08-26T00:28:58.558Z,0.00
2022-08-26T00:29:28.542Z,0.00
2022-08-26T00:30:01.890Z,0.00
2022-08-26T00:30:31.896Z,0.00
2022-08-26T00:31:01.873Z,0.00
2022-08-26T00:31:31.912Z,0.00
2022-08-26T00:32:02.082Z,0.00
2022-08-26T00:32:34.104Z,0.00
2022-08-26T00:33:04.561Z,0.00
2022-08-26T00:33:35.467Z,0.00
2022-08-26T00:34:05.451Z,0.00
2022-08-26T00:34:35.455Z,0.00
2022-08-26T00:35:05.464Z,0.00
2022-08-26T00:35:36.201Z,0.00
2022-08-26T00:36:06.211Z,0.00
2022-08-26T00:36:36.204Z,0.00
2022-08-26T00:37:08.937Z,0.00
2022-08-26T00:37:40.341Z,0.00
2022-08-26T00:38:10.336Z,0.00
2022-08-26T00:38:40.774Z,0.00
2022-08-26T00:39:12.187Z,0.00
2022-08-26T00:39:42.173Z,0.00
2022-08-26T00:40:12.537Z,0.00
2022-08-26T00:40:42.546Z,0.00
2022-08-26T00:41:12.548Z,0.00
2022-08-26T00:41:42.619Z,0.00
2022-08-26T00:42:12.616Z,0.00
2022-08-26T00:42:46.087Z,0.00
2022-08-26T00:43:16.220Z,0.00
2022-08-26T00:43:47.963Z,0.00
2022-08-26T00:44:18.077Z,0.00
2022-08-26T00:44:48.064Z,0.00
2022-08-26T00:45:20.702Z,0.00
2022-08-26T00:45:51.922Z,0.00
2022-08-26T00:46:21.958Z,0.00
2022-08-26T00:46:52.458Z,0.00
2022-08-26T00:47:23.924Z,0.00
2022-08-26T00:47:53.930Z,0.00
2022-08-26T00:48:23.908Z,0.00
2022-08-26T00:48:54.232Z,0.00
2022-08-26T00:49:24.591Z,0.00
2022-08-26T00:49:54.565Z,0.00
2022-08-26T00:50:24.548Z,0.00
2022-08-26T00:50:55.245Z,0.00
2022-08-26T00:51:29.669Z,0.00
2022-08-26T00:52:00.114Z,0.00
2022-08-26T00:52:30.197Z,0.00
2022-08-26T00:53:00.184Z,0.00
2022-08-26T00:53:30.193Z,0.00
2022-08-26T00:54:02.222Z,0.00
2022-08-26T00:54:33.625Z,0.00
2022-08-26T00:55:03.611Z,0.00
2022-08-26T00:55:37.856Z,0.00
2022-08-26T00:56:08.296Z,0.00
2022-08-26T00:56:38.284Z,0.00
2022-08-26T00:57:08.675Z,0.00
2022-08-26T00:57:43.224Z,0.00
2022-08-26T00:58:15.218Z,0.00
2022-08-26T00:58:45.218Z,0.00
2022-08-26T00:59:15.198Z,0.00
2022-08-26T00:59:47.862Z,0.00
2022-08-26T01:00:18.185Z,0.00
2022-08-26T01:00:48.213Z,0.00
2022-08-26T01:01:18.354Z,0.00
2022-08-26T01:01:53.153Z,0.00
2022-08-26T01:02:23.318Z,0.00
2022-08-26T01:02:53.318Z,0.00
2022-08-26T01:03:23.325Z,0.00
2022-08-26T01:03:54.341Z,0.00
2022-08-26T01:04:26.149Z,0.00
2022-08-26T01:04:56.534Z,0.00
2022-08-26T01:05:26.551Z,0.00
2022-08-26T01:05:56.543Z,0.00
2022-08-26T01:06:26.525Z,0.00
2022-08-26T01:06:56.524Z,0.00
2022-08-26T01:07:27.534Z,0.00
2022-08-26T01:08:00.384Z,0.00
2022-08-26T01:08:33.617Z,0.00
2022-08-26T01:09:03.612Z,0.00
2022-08-26T01:09:33.660Z,0.00
2022-08-26T01:10:03.797Z,0.00
2022-08-26T01:10:33.836Z,0.00
2022-08-26T01:11:03.819Z,0.00
2022-08-26T01:11:34.336Z,0.00
2022-08-26T01:12:04.358Z,0.00
2022-08-26T01:12:34.352Z,0.00
2022-08-26T01:13:04.440Z,0.00
2022-08-26T01:13:34.487Z,0.00
2022-08-26T01:14:04.683Z,0.00
2022-08-26T01:14:36.700Z,0.00
2022-08-26T01:15:06.828Z,0.00
2022-08-26T01:15:36.856Z,0.00
2022-08-26T01:16:06.894Z,0.00
2022-08-26T01:16:36.989Z,0.00
2022-08-26T01:17:07.187Z,0.00
2022-08-26T01:17:37.266Z,0.00
2022-08-26T01:18:07.459Z,0.00
2022-08-26T01:18:37.459Z,0.00
2022-08-26T01:19:07.449Z,0.00
2022-08-26T01:19:37.453Z,0.00
2022-08-26T01:20:09.863Z,0.00
2022-08-26T01:20:42.568Z,0.00
2022-08-26T01:21:12.551Z,0.00
2022-08-26T01:21:42.555Z,0.00
2022-08-26T01:22:12.562Z,0.00
2022-08-26T01:22:42.554Z,0.00
2022-08-26T01:23:13.865Z,0.00
2022-08-26T01:23:45.026Z,0.00
2022-08-26T01:24:15.194Z,0.00
2022-08-26T01:24:45.339Z,0.00
2022-08-26T01:25:17.894Z,0.00
2022-08-26T01:25:47.888Z,0.00
2022-08-26T01:26:19.921Z,0.00
2022-08-26T01:26:50.120Z,0.00
2022-08-26T01:27:20.126Z,0.00
2022-08-26T01:27:50.134Z,0.00
2022-08-26T01:28:20.703Z,0.00
2022-08-26T01:28:51.758Z,0.00
2022-08-26T01:29:21.918Z,0.00
2022-08-26T01:29:52.291Z,0.00
2022-08-26T01:30:23.447Z,0.00
2022-08-26T01:30:53.450Z,0.00
2022-08-26T01:31:23.670Z,0.00
2022-08-26T01:31:53.772Z,0.00
2022-08-26T01:32:23.773Z,0.00
2022-08-26T01:32:53.773Z,0.00
2022-08-26T01:33:23.765Z,0.00
2022-08-26T01:33:53.747Z,0.00
2022-08-26T01:34:23.729Z,0.00
2022-08-26T01:34:54.832Z,0.00
2022-08-26T01:35:24.815Z,0.00
2022-08-26T01:35:54.804Z,0.00
2022-08-26T01:36:24.807Z,0.00
2022-08-26T01:36:54.815Z,0.00
2022-08-26T01:37:24.809Z,0.00
2022-08-26T01:37:54.793Z,0.00
2022-08-26T01:38:24.777Z,0.00
2022-08-26T01:38:55.283Z,0.00
2022-08-26T01:39:25.344Z,0.00
2022-08-26T01:39:55.410Z,0.00
2022-08-26T01:40:25.434Z,0.00
2022-08-26T01:40:55.462Z,0.00
2022-08-26T01:41:29.219Z,0.00
2022-08-26T01:42:03.031Z,0.00
2022-08-26T01:42:33.335Z,0.00
2022-08-26T01:43:03.324Z,0.00
2022-08-26T01:43:33.324Z,0.00
2022-08-26T01:44:03.556Z,0.00
2022-08-26T01:44:33.548Z,0.00
2022-08-26T01:45:03.543Z,0.00
2022-08-26T01:45:34.328Z,0.00
2022-08-26T01:46:04.395Z,0.00
2022-08-26T01:46:34.409Z,0.00
2022-08-26T01:47:05.213Z,0.00
2022-08-26T01:47:36.533Z,0.00
2022-08-26T01:48:07.100Z,0.00
2022-08-26T01:48:37.915Z,0.00
2022-08-26T01:49:07.928Z,0.00
2022-08-26T01:49:37.915Z,0.00
2022-08-26T01:50:07.981Z,0.00
2022-08-26T01:50:37.964Z,0.00
2022-08-26T01:51:07.986Z,0.00
2022-08-26T01:51:37.992Z,0.00
2022-08-26T01:52:08.938Z,0.00
2022-08-26T01:52:40.900Z,0.00
2022-08-26T01:53:12.703Z,0.00
2022-08-26T01:53:42.703Z,0.00
2022-08-26T01:54:16.852Z,0.00
2022-08-26T01:54:51.065Z,0.00
2022-08-26T01:55:32.023Z,0.00
2022-08-26T01:55:56.051Z,0.00
2022-08-26T01:56:26.061Z,0.00
2022-08-26T01:57:01.035Z,0.00
2022-08-26T01:57:32.026Z,0.00
2022-08-26T01:58:02.049Z,0.00
2022-08-26T01:58:32.062Z,0.00
2022-08-26T01:59:02.110Z,0.00
2022-08-26T01:59:32.112Z,0.00
2022-08-26T02:00:02.161Z,0.00
2022-08-26T02:00:32.308Z,0.00
2022-08-26T02:01:02.542Z,0.00
2022-08-26T02:01:32.610Z,0.00
2022-08-26T02:02:02.673Z,0.00
2022-08-26T02:02:32.690Z,0.00
2022-08-26T02:03:03.104Z,0.00
2022-08-26T02:03:33.253Z,0.00
2022-08-26T02:04:08.106Z,0.00
2022-08-26T02:04:38.182Z,0.00
2022-08-26T02:05:08.208Z,0.00
2022-08-26T02:05:38.211Z,0.00
2022-08-26T02:06:09.152Z,0.00
2022-08-26T02:06:39.472Z,0.00
2022-08-26T02:07:09.861Z,0.00
2022-08-26T02:07:39.847Z,0.00
2022-08-26T02:08:09.859Z,0.00
2022-08-26T02:08:40.020Z,0.00
2022-08-26T02:09:10.009Z,0.00
2022-08-26T02:09:41.406Z,0.00
2022-08-26T02:10:11.599Z,0.00
2022-08-26T02:10:41.600Z,0.00
2022-08-26T02:11:12.699Z,0.00
2022-08-26T02:11:42.684Z,0.00
2022-08-26T02:12:12.687Z,0.00
2022-08-26T02:12:42.669Z,0.00
2022-08-26T02:13:12.670Z,0.00
2022-08-26T02:13:43.875Z,0.00
2022-08-26T02:14:13.858Z,0.00
2022-08-26T02:14:44.454Z,0.00
2022-08-26T02:15:14.564Z,0.00
2022-08-26T02:15:47.233Z,0.00
2022-08-26T02:16:17.329Z,0.00
2022-08-26T02:16:47.621Z,0.00
2022-08-26T02:17:18.021Z,0.00
2022-08-26T02:17:52.608Z,0.00
2022-08-26T02:18:22.929Z,0.00
2022-08-26T02:18:53.420Z,0.00
2022-08-26T02:19:23.546Z,0.00
2022-08-26T02:19:53.533Z,0.00
2022-08-26T02:20:23.542Z,0.00
2022-08-26T02:20:53.554Z,0.00
2022-08-26T02:21:24.908Z,0.00
2022-08-26T02:21:55.103Z,0.00
2022-08-26T02:22:25.113Z,0.00
2022-08-26T02:22:55.139Z,0.00
2022-08-26T02:23:25.149Z,0.00
2022-08-26T02:23:56.020Z,0.00
2022-08-26T02:24:27.401Z,0.00
2022-08-26T02:24:57.757Z,0.00
2022-08-26T02:25:27.777Z,0.00
2022-08-26T02:25:57.776Z,0.00
2022-08-26T02:26:27.764Z,0.00
2022-08-26T02:26:57.858Z,0.00
2022-08-26T02:27:28.089Z,0.00
2022-08-26T02:27:58.242Z,0.00
2022-08-26T02:28:28.241Z,0.00
2022-08-26T02:28:58.610Z,0.00
2022-08-26T02:29:28.606Z,0.00
2022-08-26T02:29:58.596Z,0.00
2022-08-26T02:30:28.943Z,0.00
2022-08-26T02:30:59.048Z,0.00
2022-08-26T02:31:29.324Z,0.00
2022-08-26T02:31:59.574Z,0.00
2022-08-26T02:32:29.556Z,0.00
2022-08-26T02:32:59.958Z,0.00
2022-08-26T02:33:29.941Z,0.00
2022-08-26T02:34:00.430Z,0.00
2022-08-26T02:34:31.366Z,0.00
2022-08-26T02:35:01.455Z,0.00
2022-08-26T02:35:31.462Z,0.00
2022-08-26T02:36:01.646Z,0.00
2022-08-26T02:36:31.648Z,0.00
2022-08-26T02:37:01.653Z,0.00
2022-08-26T02:37:31.646Z,0.00
2022-08-26T02:38:09.951Z,0.00
2022-08-26T02:38:38.928Z,0.00
2022-08-26T02:39:09.738Z,0.00
2022-08-26T02:39:39.734Z,0.00
2022-08-26T02:40:09.802Z,0.00
2022-08-26T02:40:39.846Z,0.00
2022-08-26T02:41:10.019Z,0.00
2022-08-26T02:41:44.779Z,0.00
2022-08-26T02:42:15.277Z,0.00
2022-08-26T02:42:45.283Z,0.00
2022-08-26T02:43:15.283Z,0.00
2022-08-26T02:43:45.306Z,0.00
2022-08-26T02:44:15.297Z,0.00
2022-08-26T02:44:45.294Z,0.00
2022-08-26T02:45:16.332Z,0.00
2022-08-26T02:45:50.243Z,0.00
2022-08-26T02:46:21.542Z,0.00
2022-08-26T02:46:55.206Z,0.00
2022-08-26T02:47:25.213Z,0.00
2022-08-26T02:47:59.621Z,0.00
2022-08-26T02:48:29.740Z,0.00
2022-08-26T02:48:59.756Z,0.00
2022-08-26T02:49:29.757Z,0.00
2022-08-26T02:49:59.743Z,0.00
2022-08-26T02:50:29.730Z,0.00
2022-08-26T02:50:59.734Z,0.00
2022-08-26T02:51:29.739Z,0.00
2022-08-26T02:51:59.737Z,0.00
2022-08-26T02:52:31.929Z,0.00
2022-08-26T02:53:02.291Z,0.00
2022-08-26T02:53:35.666Z,0.00
2022-08-26T02:54:05.721Z,0.00
2022-08-26T02:54:35.704Z,0.00
2022-08-26T02:55:05.988Z,0.00
2022-08-26T02:55:35.988Z,0.00
2022-08-26T02:56:05.984Z,0.00
2022-08-26T02:56:35.958Z,0.00
2022-08-26T02:57:05.962Z,0.00
2022-08-26T02:57:36.739Z,0.00
2022-08-26T02:58:07.824Z,0.00
2022-08-26T02:58:37.814Z,0.00
2022-08-26T02:59:07.821Z,0.00
2022-08-26T02:59:38.943Z,0.00
2022-08-26T03:00:08.951Z,0.00
2022-08-26T03:00:39.017Z,0.00
2022-08-26T03:01:13.945Z,0.00
2022-08-26T03:01:44.000Z,0.00
2022-08-26T03:02:14.073Z,0.00
2022-08-26T03:02:44.087Z,0.00
2022-08-26T03:03:14.173Z,0.00
2022-08-26T03:03:44.175Z,0.00
2022-08-26T03:04:14.174Z,0.00
2022-08-26T03:04:58.124Z,0.00
2022-08-26T03:05:20.164Z,0.00
2022-08-26T03:05:50.162Z,0.00
2022-08-26T03:06:20.147Z,0.00
2022-08-26T03:06:52.619Z,0.00
2022-08-26T03:07:22.967Z,0.00
2022-08-26T03:07:52.949Z,0.00
2022-08-26T03:08:23.940Z,0.00
2022-08-26T03:08:55.324Z,0.00
2022-08-26T03:09:25.612Z,0.00
2022-08-26T03:09:55.952Z,0.00
2022-08-26T03:10:26.618Z,0.00
2022-08-26T03:10:57.231Z,0.00
2022-08-26T03:11:30.944Z,0.00
2022-08-26T03:12:02.138Z,0.00
2022-08-26T03:12:32.117Z,0.00
2022-08-26T03:13:05.112Z,0.00
2022-08-26T03:13:35.377Z,0.00
2022-08-26T03:14:05.422Z,0.00
2022-08-26T03:14:35.889Z,0.00
2022-08-26T03:15:15.957Z,0.00
2022-08-26T03:15:40.784Z,0.00
2022-08-26T03:16:10.897Z,0.00
2022-08-26T03:16:40.914Z,0.00
2022-08-26T03:17:11.677Z,0.00
2022-08-26T03:17:41.659Z,0.00
2022-08-26T03:18:12.481Z,0.00
2022-08-26T03:18:42.460Z,0.00
2022-08-26T03:19:12.458Z,0.00
2022-08-26T03:19:42.436Z,0.00
2022-08-26T03:20:13.629Z,0.00
2022-08-26T03:20:45.501Z,0.00
2022-08-26T03:21:15.498Z,0.00
2022-08-26T03:21:47.310Z,0.00
2022-08-26T03:22:17.532Z,0.00
2022-08-26T03:22:47.517Z,0.00
2022-08-26T03:23:18.770Z,0.00
2022-08-26T03:23:48.775Z,0.00
2022-08-26T03:24:18.754Z,0.00
2022-08-26T03:24:48.739Z,0.00
2022-08-26T03:25:18.760Z,0.00
2022-08-26T03:25:48.741Z,0.00
2022-08-26T03:26:18.748Z,0.00
2022-08-26T03:26:52.183Z,0.00
2022-08-26T03:27:22.969Z,0.00
2022-08-26T03:27:52.942Z,0.00
2022-08-26T03:28:22.914Z,0.00
2022-08-26T03:28:57.082Z,0.00
2022-08-26T03:29:28.411Z,0.00
2022-08-26T03:30:02.946Z,0.00
2022-08-26T03:30:32.930Z,0.00
2022-08-26T03:31:03.158Z,0.00
2022-08-26T03:31:33.236Z,0.00
2022-08-26T03:32:03.264Z,0.00
2022-08-26T03:32:33.244Z,0.00
2022-08-26T03:33:03.229Z,0.00
2022-08-26T03:33:33.834Z,0.00
2022-08-26T03:34:03.810Z,0.00
2022-08-26T03:34:34.068Z,0.00
2022-08-26T03:35:04.056Z,0.00
2022-08-26T03:35:34.046Z,0.00
2022-08-26T03:36:04.033Z,0.00
2022-08-26T03:36:35.157Z,0.00
2022-08-26T03:37:05.195Z,0.00
2022-08-26T03:37:35.308Z,0.00
2022-08-26T03:38:05.290Z,0.00
2022-08-26T03:38:35.284Z,0.00
2022-08-26T03:39:05.263Z,0.00
2022-08-26T03:39:35.246Z,0.00
2022-08-26T03:40:05.301Z,3.00
2022-08-26T03:40:35.370Z,3.00
2022-08-26T03:41:05.433Z,3.00
2022-08-26T03:41:36.909Z,3.00
2022-08-26T03:42:07.420Z,3.00
2022-08-26T03:42:37.605Z,3.00
2022-08-26T03:43:09.499Z,3.00
2022-08-26T03:43:40.111Z,3.00
2022-08-26T03:44:10.431Z,0.00
2022-08-26T03:44:42.262Z,0.00
2022-08-26T03:45:12.339Z,0.00
2022-08-26T03:45:42.573Z,0.00
2022-08-26T03:46:12.653Z,4.00
2022-08-26T03:46:42.971Z,4.00
2022-08-26T03:47:14.089Z,4.00
2022-08-26T03:47:44.080Z,4.00
2022-08-26T03:48:14.073Z,4.00
2022-08-26T03:48:44.055Z,9.00
2022-08-26T03:49:15.213Z,1.00
2022-08-26T03:49:45.247Z,1.00
2022-08-26T03:50:15.224Z,1.00
2022-08-26T03:50:45.214Z,9.00
2022-08-26T03:51:18.366Z,9.00
2022-08-26T03:51:49.052Z,9.00
2022-08-26T03:52:20.093Z,5.00
2022-08-26T03:52:50.075Z,5.00
2022-08-26T03:53:20.646Z,13.00
2022-08-26T03:53:50.668Z,13.00
2022-08-26T03:54:20.652Z,10.00
2022-08-26T03:54:50.634Z,10.00
2022-08-26T03:55:20.618Z,18.00
2022-08-26T03:55:53.777Z,6.00
2022-08-26T03:56:23.785Z,14.00
2022-08-26T03:56:53.808Z,23.00
2022-08-26T03:57:23.795Z,27.00
2022-08-26T03:57:53.782Z,27.00
2022-08-26T03:58:23.766Z,15.00
2022-08-26T03:58:53.748Z,32.00
2022-08-26T03:59:23.730Z,28.00
2022-08-26T03:59:54.553Z,9.00
2022-08-26T04:00:24.542Z,30.00
2022-08-26T04:00:55.766Z,30.00
2022-08-26T04:01:25.907Z,31.00
2022-08-26T04:01:56.025Z,32.00
2022-08-26T04:02:26.141Z,29.00
2022-08-26T04:02:56.277Z,34.00
2022-08-26T04:03:26.406Z,31.00
2022-08-26T04:03:56.692Z,40.00
2022-08-26T04:04:28.231Z,28.00
2022-08-26T04:04:58.210Z,46.00
2022-08-26T04:05:28.314Z,47.00
2022-08-26T04:05:58.347Z,69.00
2022-08-26T04:06:28.364Z,70.00
2022-08-26T04:06:58.406Z,66.00
2022-08-26T04:07:28.437Z,76.00
2022-08-26T04:08:01.972Z,76.00
2022-08-26T04:08:31.967Z,94.00
2022-08-26T04:09:01.950Z,86.00
2022-08-26T04:09:35.261Z,82.00
2022-08-26T04:10:05.449Z,71.00
2022-08-26T04:10:35.429Z,88.00
2022-08-26T04:11:05.401Z,105.00
2022-08-26T04:11:35.458Z,110.00
2022-08-26T04:12:08.660Z,127.00
2022-08-26T04:12:38.642Z,135.00
2022-08-26T04:13:08.879Z,131.00
2022-08-26T04:13:38.972Z,145.00
2022-08-26T04:14:10.048Z,153.00
2022-08-26T04:14:40.031Z,149.00
2022-08-26T04:15:10.012Z,175.00
2022-08-26T04:15:40.004Z,175.00
2022-08-26T04:16:10.259Z,175.00
2022-08-26T04:16:40.386Z,175.00
2022-08-26T04:17:10.379Z,175.00
2022-08-26T04:17:40.375Z,183.00
2022-08-26T04:18:10.527Z,192.00
2022-08-26T04:18:40.596Z,197.00
2022-08-26T04:19:15.439Z,201.00
2022-08-26T04:19:45.418Z,211.00
2022-08-26T04:20:16.238Z,190.00
2022-08-26T04:20:46.353Z,225.00
2022-08-26T04:21:16.339Z,230.00
2022-08-26T04:21:46.319Z,235.00
2022-08-26T04:22:16.295Z,254.00
2022-08-26T04:22:51.221Z,272.00
2022-08-26T04:23:21.212Z,286.00
2022-08-26T04:23:51.207Z,283.00
2022-08-26T04:24:21.193Z,288.00
2022-08-26T04:24:51.489Z,319.00
2022-08-26T04:25:21.620Z,338.00
2022-08-26T04:25:51.622Z,335.00
2022-08-26T04:26:21.597Z,358.00
2022-08-26T04:26:51.778Z,365.00
2022-08-26T04:27:21.757Z,377.00
2022-08-26T04:27:52.107Z,400.00
2022-08-26T04:28:22.504Z,420.00
2022-08-26T04:28:52.643Z,461.00
2022-08-26T04:29:22.641Z,457.00
2022-08-26T04:29:55.290Z,498.00
2022-08-26T04:30:25.572Z,510.00
2022-08-26T04:30:55.627Z,539.00
2022-08-26T04:31:25.692Z,546.00
2022-08-26T04:31:56.387Z,595.00
2022-08-26T04:32:26.369Z,612.00
2022-08-26T04:32:56.708Z,645.00
2022-08-26T04:33:32.207Z,666.00
2022-08-26T04:34:02.562Z,713.00
2022-08-26T04:34:32.535Z,746.00
2022-08-26T04:35:03.610Z,802.00
2022-08-26T04:35:34.661Z,819.00
2022-08-26T04:36:04.648Z,853.00
2022-08-26T04:36:35.293Z,891.00
2022-08-26T04:37:05.776Z,937.00
2022-08-26T04:37:35.758Z,967.00
2022-08-26T04:38:05.889Z,1010.00
2022-08-26T04:38:37.545Z,1056.00
2022-08-26T04:39:07.536Z,1111.00
2022-08-26T04:39:37.522Z,1177.00
2022-08-26T04:40:07.587Z,1196.00
2022-08-26T04:40:38.655Z,1230.00
2022-08-26T04:41:15.378Z,1276.00
2022-08-26T04:41:43.863Z,1314.00
2022-08-26T04:42:14.314Z,1362.00
2022-08-26T04:42:44.295Z,1363.00
2022-08-26T04:43:14.290Z,1420.00
2022-08-26T04:43:44.280Z,1444.00
2022-08-26T04:44:14.261Z,1507.00
2022-08-26T04:44:44.417Z,1535.00
2022-08-26T04:45:14.401Z,1567.00
2022-08-26T04:45:44.407Z,1615.00
2022-08-26T04:46:14.503Z,1667.00
2022-08-26T04:46:44.606Z,1680.00
2022-08-26T04:47:14.637Z,1706.00
2022-08-26T04:47:44.625Z,1740.00
2022-08-26T04:48:16.744Z,1770.00
2022-08-26T04:48:47.043Z,1809.00
2022-08-26T04:49:17.018Z,1832.00
2022-08-26T04:49:48.405Z,1876.00
2022-08-26T04:50:18.385Z,1911.00
2022-08-26T04:50:51.546Z,1926.00
2022-08-26T04:51:21.523Z,1996.00
2022-08-26T04:51:52.048Z,2024.00
2022-08-26T04:52:22.042Z,2078.00
2022-08-26T04:52:52.773Z,2101.00
2022-08-26T04:53:22.762Z,2142.00
2022-08-26T04:53:53.070Z,2187.00
2022-08-26T04:54:23.052Z,2240.00
2022-08-26T04:54:55.118Z,2268.00
2022-08-26T04:55:37.267Z,2305.00
2022-08-26T04:56:00.032Z,2393.00
2022-08-26T04:56:30.014Z,2435.00
2022-08-26T04:56:59.988Z,2459.00
2022-08-26T04:57:29.971Z,2526.00
2022-08-26T04:57:59.954Z,2568.00
2022-08-26T04:58:29.930Z,2626.00
2022-08-26T04:58:59.942Z,2642.00
2022-08-26T04:59:29.921Z,2748.00
2022-08-26T04:59:59.896Z,2777.00
2022-08-26T05:00:29.880Z,2827.00
2022-08-26T05:00:59.884Z,2882.00
2022-08-26T05:01:29.956Z,2941.00
2022-08-26T05:02:00.066Z,3000.00
2022-08-26T05:02:30.087Z,3054.00
2022-08-26T05:03:00.087Z,3104.00
2022-08-26T05:03:30.527Z,3180.00
2022-08-26T05:04:01.203Z,3218.00
2022-08-26T05:04:34.969Z,3290.00
2022-08-26T05:05:04.951Z,3345.00
2022-08-26T05:05:34.928Z,3400.00
2022-08-26T05:06:05.291Z,3438.00
2022-08-26T05:06:36.902Z,3498.00
2022-08-26T05:07:07.202Z,3579.00
2022-08-26T05:07:37.189Z,3650.00
2022-08-26T05:08:07.172Z,3697.00
2022-08-26T05:08:38.906Z,3751.00
2022-08-26T05:09:10.987Z,3810.00
2022-08-26T05:09:40.960Z,3869.00
2022-08-26T05:10:10.936Z,3906.00
2022-08-26T05:10:40.922Z,3991.00
2022-08-26T05:11:10.914Z,4045.00
2022-08-26T05:11:40.899Z,4095.00
2022-08-26T05:12:11.451Z,4141.00
2022-08-26T05:12:41.678Z,4203.00
2022-08-26T05:13:15.708Z,4271.00
2022-08-26T05:13:45.847Z,4328.00
2022-08-26T05:14:16.790Z,4381.00
2022-08-26T05:14:46.787Z,4446.00
2022-08-26T05:15:16.948Z,4482.00
2022-08-26T05:15:47.314Z,4535.00
2022-08-26T05:16:17.488Z,4598.00
2022-08-26T05:16:47.728Z,4652.00
2022-08-26T05:17:17.831Z,4719.00
2022-08-26T05:17:47.810Z,4763.00
2022-08-26T05:18:17.792Z,4825.00
2022-08-26T05:18:50.030Z,4852.00
2022-08-26T05:19:20.007Z,4879.00
2022-08-26T05:19:51.202Z,4944.00
2022-08-26T05:20:25.232Z,5013.00
2022-08-26T05:20:56.112Z,5056.00
2022-08-26T05:21:26.095Z,5116.00
2022-08-26T05:21:57.048Z,5142.00
2022-08-26T05:22:27.026Z,5159.00
2022-08-26T05:22:57.010Z,5179.00
2022-08-26T05:23:27.010Z,5232.00
2022-08-26T05:23:57.014Z,5246.00
2022-08-26T05:24:27.011Z,5259.00
2022-08-26T05:24:57.359Z,5294.00
2022-08-26T05:25:27.526Z,5333.00
2022-08-26T05:26:00.336Z,5368.00
2022-08-26T05:26:30.567Z,5390.00
2022-08-26T05:27:00.551Z,5446.00
2022-08-26T05:27:30.538Z,5461.00
2022-08-26T05:28:00.578Z,5545.00
2022-08-26T05:28:30.565Z,5543.00
2022-08-26T05:29:00.538Z,5570.00
2022-08-26T05:29:30.515Z,5601.00
2022-08-26T05:30:00.505Z,5627.00
2022-08-26T05:30:31.146Z,5664.00
2022-08-26T05:31:01.252Z,5678.00
2022-08-26T05:31:31.371Z,5728.00
2022-08-26T05:32:01.400Z,5772.00
2022-08-26T05:32:31.382Z,5808.00
2022-08-26T05:33:01.366Z,5871.00
2022-08-26T05:33:32.750Z,5911.00
2022-08-26T05:34:03.585Z,5968.00
2022-08-26T05:34:33.869Z,6026.00
2022-08-26T05:35:03.864Z,6098.00
2022-08-26T05:35:38.784Z,6170.00
2022-08-26T05:36:08.766Z,6232.00
2022-08-26T05:36:39.258Z,6282.00
2022-08-26T05:37:09.232Z,6356.00
2022-08-26T05:37:39.233Z,6413.00
2022-08-26T05:38:12.431Z,6488.00
2022-08-26T05:38:42.878Z,6534.00
2022-08-26T05:39:14.004Z,6581.00
2022-08-26T05:39:51.122Z,6666.00
2022-08-26T05:40:19.104Z,6745.00
2022-08-26T05:40:49.522Z,6776.00
2022-08-26T05:41:22.969Z,6837.00
2022-08-26T05:41:52.959Z,6875.00
2022-08-26T05:42:22.932Z,6927.00
2022-08-26T05:42:52.910Z,6970.00
2022-08-26T05:43:22.888Z,7040.00
2022-08-26T05:43:52.871Z,7112.00
2022-08-26T05:44:22.856Z,7162.00
2022-08-26T05:44:55.332Z,7246.00
2022-08-26T05:45:26.112Z,7364.00
2022-08-26T05:45:56.190Z,7479.00
2022-08-26T05:46:26.261Z,7626.00
2022-08-26T05:46:56.699Z,7598.00
2022-08-26T05:47:26.685Z,7760.00
2022-08-26T05:47:57.053Z,7813.00
2022-08-26T05:48:27.057Z,7773.00
2022-08-26T05:48:57.067Z,7879.00
2022-08-26T05:49:27.066Z,8018.00
2022-08-26T05:49:57.185Z,8175.00
2022-08-26T05:50:27.198Z,8235.00
2022-08-26T05:50:57.187Z,8466.00
2022-08-26T05:51:27.276Z,8311.00
2022-08-26T05:52:00.506Z,8301.00
2022-08-26T05:52:30.512Z,8527.00
2022-08-26T05:53:00.702Z,8598.00
2022-08-26T05:53:31.958Z,8965.00
2022-08-26T05:54:02.131Z,8938.00
2022-08-26T05:54:33.636Z,8912.00
2022-08-26T05:55:03.642Z,9056.00
2022-08-26T05:55:33.654Z,9165.00
2022-08-26T05:56:04.103Z,9309.00
2022-08-26T05:56:34.080Z,9482.00
2022-08-26T05:57:04.711Z,9309.00
2022-08-26T05:57:39.967Z,8806.00
2022-08-26T05:58:09.784Z,11507.00
2022-08-26T05:58:39.808Z,11212.00
2022-08-26T05:59:14.170Z,11739.00
2022-08-26T05:59:44.603Z,11854.00
2022-08-26T06:00:15.977Z,12560.00
2022-08-26T06:00:45.982Z,12725.00
2022-08-26T06:01:16.041Z,12903.00
2022-08-26T06:01:46.434Z,12985.00
2022-08-26T06:02:16.462Z,13022.00
2022-08-26T06:02:48.406Z,13057.00
2022-08-26T06:03:18.620Z,12844.00
2022-08-26T06:03:48.974Z,13147.00
2022-08-26T06:04:20.013Z,13622.00
2022-08-26T06:04:50.275Z,13877.00
2022-08-26T06:05:21.895Z,14141.00
2022-08-26T06:05:52.108Z,14361.00
2022-08-26T06:06:27.529Z,14618.00
2022-08-26T06:06:57.199Z,14739.00
2022-08-26T06:07:27.386Z,14881.00
2022-08-26T06:07:57.570Z,14948.00
2022-08-26T06:08:27.580Z,14802.00
2022-08-26T06:08:57.709Z,14723.00
2022-08-26T06:09:27.717Z,14750.00
2022-08-26T06:10:21.388Z,14775.00
2022-08-26T06:10:33.121Z,14937.00
2022-08-26T06:11:03.250Z,14798.00
2022-08-26T06:11:35.396Z,14650.00
2022-08-26T06:12:05.376Z,14143.00
2022-08-26T06:12:35.359Z,14320.00
2022-08-26T06:13:09.188Z,14384.00
2022-08-26T06:13:40.384Z,14408.00
2022-08-26T06:14:10.401Z,14342.00
2022-08-26T06:14:40.403Z,14335.00
2022-08-26T06:15:10.411Z,14517.00
2022-08-26T06:15:41.933Z,14702.00
2022-08-26T06:16:12.207Z,15140.00
2022-08-26T06:16:42.563Z,15303.00
2022-08-26T06:17:12.567Z,15896.00
2022-08-26T06:17:42.985Z,16412.00
2022-08-26T06:18:12.969Z,16869.00
2022-08-26T06:18:42.985Z,17356.00
2022-08-26T06:19:12.967Z,17850.00
2022-08-26T06:19:42.944Z,17874.00
2022-08-26T06:20:12.951Z,17911.00
2022-08-26T06:20:42.962Z,17985.00
2022-08-26T06:21:17.884Z,18396.00
2022-08-26T06:21:47.913Z,18733.00
2022-08-26T06:22:23.472Z,18851.00
2022-08-26T06:22:53.806Z,18622.00
2022-08-26T06:23:23.809Z,18602.00
2022-08-26T06:23:53.822Z,18507.00
2022-08-26T06:24:26.871Z,18459.00
2022-08-26T06:24:57.367Z,18109.00
2022-08-26T06:25:27.361Z,18487.00
2022-08-26T06:25:57.344Z,18599.00
2022-08-26T06:26:27.341Z,18751.00
2022-08-26T06:26:57.334Z,19174.00
2022-08-26T06:27:32.126Z,17742.00
2022-08-26T06:28:02.265Z,17735.00
2022-08-26T06:28:33.090Z,17219.00
2022-08-26T06:29:03.151Z,17237.00
2022-08-26T06:29:34.188Z,17297.00
2022-08-26T06:30:04.203Z,16909.00
2022-08-26T06:30:34.206Z,16785.00
2022-08-26T06:31:04.246Z,16895.00
2022-08-26T06:31:34.378Z,17050.00
2022-08-26T06:32:04.429Z,17419.00
2022-08-26T06:32:34.540Z,18107.00
2022-08-26T06:33:04.608Z,18710.00